Time;durP1;ratioP1;P1;durP2;ratioP2;P2;SDS_P1;SDS_P2;PMS_P1;PMS_P2;Temp;Humidity;BMP_temperature;BMP_pressure;BME280_temperature;BME280_humidity;BME280_pressure;Samples;Min_cycle;Max_cycle;Signal;HPM_P1;HPM_P2
2021/01/29 00:00:59;;;;;;;5.90;2.87;;;;;;;-1.89;84.57;99439.56;1763276;80;21182;-77
2021/01/29 00:03:29;;;;;;;4.12;2.77;;;;;;;-1.87;84.56;99435.37;1746660;82;21145;-77
2021/01/29 00:06:02;;;;;;;5.85;2.90;;;;;;;-1.85;84.54;99438.78;1751395;80;21186;-77
2021/01/29 00:08:26;;;;;;;7.92;3.58;;;;;;;-1.84;84.50;99436.68;1772375;80;21234;-78
2021/01/29 00:10:54;;;;;;;12.20;2.83;;;;;;;-1.82;84.45;99438.82;1772397;80;21169;-78
2021/01/29 00:13:22;;;;;;;8.58;2.77;;;;;;;-1.82;84.50;99445.16;1763776;80;21178;-78
2021/01/29 00:15:48;;;;;;;8.90;2.47;;;;;;;-1.83;84.47;99440.92;1764060;80;22340;-78
2021/01/29 00:18:14;;;;;;;10.68;3.42;;;;;;;-1.80;84.51;99434.63;1772505;80;21183;-77
2021/01/29 00:20:41;;;;;;;7.03;3.35;;;;;;;-1.77;84.51;99430.46;1741751;80;21190;-77
2021/01/29 00:23:09;;;;;;;10.35;2.98;;;;;;;-1.74;84.51;99430.92;1738570;80;21474;-77
2021/01/29 00:25:40;;;;;;;4.67;2.70;;;;;;;-1.75;84.44;99430.48;1761750;80;21225;-77
2021/01/29 00:28:07;;;;;;;5.58;2.72;;;;;;;-1.80;84.42;99420.70;1745806;82;21225;-77
2021/01/29 00:30:34;;;;;;;5.92;2.87;;;;;;;-1.76;84.34;99433.43;1725325;81;21209;-77
2021/01/29 00:33:03;;;;;;;9.10;2.58;;;;;;;-1.76;84.34;99433.43;1719039;83;21186;-78
2021/01/29 00:35:32;;;;;;;6.72;2.55;;;;;;;-1.76;84.41;99430.05;1727358;81;21209;-77
2021/01/29 00:38:00;;;;;;;5.65;2.65;;;;;;;-1.75;84.45;99435.55;1747274;82;21185;-77
2021/01/29 00:40:27;;;;;;;5.20;2.72;;;;;;;-1.72;84.49;99427.99;1746727;82;21563;-77
2021/01/29 00:42:53;;;;;;;5.72;2.62;;;;;;;-1.73;84.40;99428.82;1712501;82;21164;-77
2021/01/29 00:45:24;;;;;;;5.37;2.83;;;;;;;-1.84;84.47;99407.55;1715654;83;21181;-77
2021/01/29 00:47:50;;;;;;;5.33;2.08;;;;;;;-1.70;84.37;99427.59;1716886;83;21063;-77
2021/01/29 00:50:17;;;;;;;4.22;2.30;;;;;;;-1.73;84.41;99423.34;1711122;82;21152;-77
2021/01/29 00:52:43;;;;;;;;;;;;;;;-1.70;84.47;99422.53;1748947;82;21211;-77
2021/01/29 00:55:10;;;;;;;;;;;;;;;-1.67;84.45;99426.38;1725611;81;20360;-77
2021/01/29 00:57:36;;;;;;;9.00;2.25;;;;;;;-1.68;84.33;99430.59;1719474;81;20255;-77
2021/01/29 01:00:07;;;;;;;7.60;2.17;;;;;;;-1.68;84.33;99430.59;1741018;80;21206;-77
2021/01/29 01:02:33;;;;;;;6.25;2.47;;;;;;;-1.67;84.42;99433.56;1720365;82;21213;-77
2021/01/29 01:04:59;;;;;;;5.80;2.30;;;;;;;-1.63;84.54;99433.61;1745262;80;21222;-77
2021/01/29 01:07:25;;;;;;;6.45;2.42;;;;;;;-1.60;84.54;99437.03;1716596;83;21190;-78
2021/01/29 01:09:51;;;;;;;5.42;2.75;;;;;;;-1.59;84.44;99423.53;1746392;82;21193;-78
2021/01/29 01:12:18;;;;;;;4.87;2.30;;;;;;;-1.59;84.40;99421.00;1725779;81;21169;-78
2021/01/29 01:14:44;;;;;;;3.80;1.92;;;;;;;-1.57;84.47;99424.41;1734914;82;21219;-78
2021/01/29 01:17:11;;;;;;;8.08;2.95;;;;;;;-1.56;84.47;99418.47;1711350;83;21241;-78
2021/01/29 01:19:37;;;;;;;4.08;2.00;;;;;;;-1.54;84.44;99413.01;1708789;82;26783;-78
2021/01/29 01:22:06;;;;;;;3.27;1.75;;;;;;;-1.54;84.38;99411.73;1718955;83;21237;-78
2021/01/29 01:24:40;;;;;;;4.12;1.90;;;;;;;-1.54;84.36;99418.49;1746336;80;21209;-78
2021/01/29 01:27:10;;;;;;;4.30;1.85;;;;;;;-1.54;84.32;99419.34;1715881;82;21175;-78
2021/01/29 01:29:36;;;;;;;2.27;1.67;;;;;;;-1.54;84.34;99414.27;1714713;81;21244;-78
2021/01/29 01:32:03;;;;;;;;;;;;;;;-1.51;84.41;99412.19;1741449;81;21178;-78
2021/01/29 01:34:30;;;;;;;5.58;2.17;;;;;;;-1.51;84.30;99409.24;1726228;81;20314;-78
2021/01/29 01:36:57;;;;;;;6.00;1.92;;;;;;;-1.51;84.33;99406.71;1719602;83;21193;-77
2021/01/29 01:39:23;;;;;;;4.42;1.98;;;;;;;-1.50;84.41;99407.14;1718586;81;21175;-77
2021/01/29 01:41:51;;;;;;;2.98;1.95;;;;;;;-1.47;84.41;99410.14;1764775;80;22136;-77
2021/01/29 01:44:40;;;;;;;4.33;2.20;;;;;;;-1.56;84.45;99387.23;1749923;81;21214;-77
2021/01/29 01:47:20;;;;;;;4.95;1.70;;;;;;;-1.56;84.45;99387.23;1746272;81;21198;-77
2021/01/29 01:49:50;;;;;;;5.85;1.87;;;;;;;-1.48;84.41;99400.41;1722353;81;21464;-77
2021/01/29 01:52:23;;;;;;;7.25;1.92;;;;;;;-1.47;84.28;99407.60;1717519;81;21190;-77
2021/01/29 01:55:00;;;;;;;4.62;1.90;;;;;;;-1.48;84.32;99400.41;1746389;82;22534;-77
2021/01/29 01:57:30;;;;;;;8.58;2.12;;;;;;;-1.56;84.39;99386.78;1726145;83;21192;-76
2021/01/29 02:00:02;;;;;;;5.75;1.82;;;;;;;-1.46;84.34;99403.82;1746056;82;21181;-77
2021/01/29 02:02:31;;;;;;;2.42;1.75;;;;;;;-1.43;84.36;99402.59;1744667;80;21190;-78
2021/01/29 02:05:03;;;;;;;3.20;1.67;;;;;;;-1.42;84.36;99401.76;1736613;80;21676;-78
2021/01/29 02:07:52;;;;;;;7.70;2.47;;;;;;;-1.41;84.32;99406.00;1714237;81;22365;-78
2021/01/29 02:10:20;;;;;;;9.83;2.60;;;;;;;-1.41;84.30;99400.08;1745435;80;21195;-77
2021/01/29 02:12:47;;;;;;;7.92;2.77;;;;;;;-1.41;84.30;99403.46;1715326;82;21632;-77
2021/01/29 02:15:19;;;;;;;3.25;1.72;;;;;;;-1.42;84.41;99400.48;1711490;83;21202;-77
2021/01/29 02:18:23;;;;;;;8.20;2.80;;;;;;;-1.40;84.24;99402.62;1711255;83;21497;-77
2021/01/29 02:21:45;;;;;;;4.42;2.20;;;;;;;-1.43;84.19;99391.18;1744024;80;21448;-77
2021/01/29 02:24:48;;;;;;;2.22;1.20;;;;;;;-1.46;84.21;99377.62;1714336;83;21671;-76
2021/01/29 02:27:38;;;;;;;4.22;1.65;;;;;;;-1.42;84.24;99388.23;1716328;83;21229;-77
2021/01/29 02:30:24;;;;;;;3.98;1.55;;;;;;;-1.43;84.20;99383.58;1745834;82;21616;-77
2021/01/29 02:33:13;;;;;;;;;;;;;;;-1.41;84.17;99383.59;1727110;81;21718;-78
2021/01/29 02:35:50;;;;;;;3.00;1.40;;;;;;;-1.40;84.18;99384.88;1726546;83;21197;-76
2021/01/29 02:38:51;;;;;;;3.60;1.67;;;;;;;-1.40;84.19;99384.03;1742931;81;21197;-76
2021/01/29 02:41:35;;;;;;;6.33;2.50;;;;;;;-1.39;84.16;99387.00;1747232;80;21190;-76
2021/01/29 02:44:32;;;;;;;4.17;1.80;;;;;;;-1.48;84.35;99372.53;1712827;82;21224;-77
2021/01/29 02:47:02;;;;;;;3.40;1.37;;;;;;;-1.48;84.35;99372.53;1695240;84;135338;-78
2021/01/29 02:50:07;;;;;;;5.15;2.00;;;;;;;-1.36;84.22;99390.84;1739371;82;22249;-78
2021/01/29 02:52:47;;;;;;;4.00;1.62;;;;;;;-1.38;84.17;99387.44;1721400;83;21157;-78
2021/01/29 02:55:33;;;;;;;4.65;1.70;;;;;;;-1.34;84.20;99383.69;1719997;83;21905;-78
2021/01/29 02:58:32;;;;;;;3.37;2.15;;;;;;;-1.33;84.19;99389.61;1719430;83;21582;-78
2021/01/29 03:01:07;;;;;;;5.25;2.05;;;;;;;-1.31;84.15;99373.15;1719518;83;21226;-78
2021/01/29 03:03:50;;;;;;;4.85;1.90;;;;;;;-1.34;84.10;99386.22;1715868;83;22766;-78
2021/01/29 03:06:22;;;;;;;2.98;1.47;;;;;;;-1.32;84.17;99385.39;1721012;83;21177;-78
2021/01/29 03:09:05;;;;;;;5.05;1.47;;;;;;;-1.32;84.14;99387.51;1719455;83;21663;-78
2021/01/29 03:11:40;;;;;;;2.90;1.62;;;;;;;-1.42;84.16;99377.67;1717854;83;21647;-76
2021/01/29 03:14:20;;;;;;;4.45;1.55;;;;;;;-1.42;84.16;99377.67;1717301;83;21228;-77
2021/01/29 03:17:00;;;;;;;9.28;1.87;;;;;;;-1.32;84.06;99390.05;1718124;83;21814;-77
2021/01/29 03:19:30;;;;;;;3.83;1.67;;;;;;;-1.32;84.08;99393.00;1717070;83;21210;-77
2021/01/29 03:22:21;;;;;;;4.05;1.50;;;;;;;-1.32;84.05;99398.92;1734131;82;21172;-77
2021/01/29 03:24:52;;;;;;;5.50;1.50;;;;;;;-1.34;84.05;99391.71;1740530;81;21762;-77
2021/01/29 03:27:25;;;;;;;4.22;1.32;;;;;;;-1.32;84.05;99391.31;1740116;82;21189;-77
2021/01/29 03:30:02;;;;;;;3.33;1.30;;;;;;;-1.32;84.07;99393.84;1740908;81;21895;-77
2021/01/29 03:32:30;;;;;;;2.27;1.42;;;;;;;-1.31;84.05;99396.82;1740131;82;21183;-76
2021/01/29 03:35:17;;;;;;;2.80;1.25;;;;;;;-1.28;84.06;99397.27;1740965;81;21175;-76
2021/01/29 03:38:11;;;;;;;2.02;1.30;;;;;;;-1.28;84.04;99399.39;1740615;82;21204;-77
2021/01/29 03:40:40;;;;;;;2.87;1.47;;;;;;;-1.27;84.05;99397.70;1740894;82;21194;-76
2021/01/29 03:43:30;;;;;;;3.52;1.17;;;;;;;-1.25;84.09;99389.70;1728631;82;21198;-76
2021/01/29 03:46:13;;;;;;;3.08;1.20;;;;;;;-1.24;84.00;99392.67;1740831;82;21043;-76
2021/01/29 03:49:22;;;;;;;1.35;1.07;;;;;;;-1.22;84.12;99390.59;1738253;81;21165;-77
2021/01/29 03:52:31;;;;;;;2.27;1.15;;;;;;;-1.21;84.04;99393.56;1645915;87;21222;-76
2021/01/29 03:55:08;;;;;;;2.25;1.25;;;;;;;-1.18;84.12;99395.28;1741069;81;21176;-76
2021/01/29 03:57:40;;;;;;;1.50;0.95;;;;;;;-1.18;84.05;99388.94;1645163;84;21257;-76
2021/01/29 04:00:23;;;;;;;2.52;1.47;;;;;;;-1.18;84.04;99390.21;1642886;85;21543;-76
2021/01/29 04:03:03;;;;;;;2.65;1.60;;;;;;;-1.17;84.05;99389.38;1635962;87;21679;-77
2021/01/29 04:05:56;;;;;;;3.30;1.40;;;;;;;-1.18;84.04;99388.94;1634038;87;21678;-76
2021/01/29 04:08:28;;;;;;;2.85;1.65;;;;;;;-1.19;84.04;99388.50;1633632;87;21232;-76
2021/01/29 04:10:58;;;;;;;6.83;2.15;;;;;;;-1.20;84.00;99391.87;1632510;85;21340;-76
2021/01/29 04:13:35;;;;;;;6.78;2.05;;;;;;;-1.22;84.02;99387.20;1650791;85;21548;-76
2021/01/29 04:16:06;;;;;;;2.15;1.60;;;;;;;-1.24;83.98;99392.26;1640234;87;21261;-76
2021/01/29 04:18:50;;;;;;;5.75;1.87;;;;;;;-1.27;83.92;99396.02;1639566;87;21717;-76
2021/01/29 04:21:36;;;;;;;7.17;2.00;;;;;;;-1.30;83.93;99397.67;1648474;85;21257;-76
2021/01/29 04:24:13;;;;;;;2.00;1.37;;;;;;;-1.31;84.00;99404.42;1641406;87;21373;-76
2021/01/29 04:27:11;;;;;;;4.65;1.60;;;;;;;-1.33;83.99;99398.48;1647684;85;21298;-76
2021/01/29 04:29:58;;;;;;;2.87;1.90;;;;;;;-1.35;84.00;99402.69;1649721;85;21258;-76
2021/01/29 04:32:29;;;;;;;4.95;1.87;;;;;;;-1.39;83.89;99408.13;1647798;85;21202;-76
2021/01/29 04:34:59;;;;;;;5.95;2.25;;;;;;;-1.51;83.89;99390.65;1697044;82;21211;-76
2021/01/29 04:37:29;;;;;;;3.58;2.35;;;;;;;-1.41;83.98;99402.61;1747134;81;21963;-76
2021/01/29 04:40:03;;;;;;;5.55;3.33;;;;;;;-1.41;83.98;99402.61;1717416;82;21665;-76
2021/01/29 04:42:47;;;;;;;6.87;3.55;;;;;;;-1.44;83.92;99407.64;1728712;82;21211;-76
2021/01/29 04:45:50;;;;;;;4.42;3.15;;;;;;;-1.47;83.92;99409.72;1640547;87;21242;-76
2021/01/29 04:48:40;;;;;;;5.37;3.60;;;;;;;-1.48;84.18;99411.82;1656664;86;21809;-76
2021/01/29 04:51:45;;;;;;;7.47;3.90;;;;;;;-1.48;84.18;99411.82;1617118;88;21361;-76
2021/01/29 04:54:25;;;;;;;6.87;3.75;;;;;;;-1.49;84.07;99407.58;1657458;86;21234;-76
2021/01/29 04:57:28;;;;;;;9.60;4.53;;;;;;;-1.60;84.21;99383.81;1623304;87;21224;-76
2021/01/29 05:00:30;;;;;;;11.65;4.20;;;;;;;-1.60;84.21;99383.81;1639647;87;21278;-77
2021/01/29 05:03:40;;;;;;;5.00;2.90;;;;;;;-1.50;84.04;99398.69;1656893;85;21231;-77
2021/01/29 05:06:50;;;;;;;7.37;2.72;;;;;;;-1.52;84.16;99399.94;1616670;88;21202;-76
2021/01/29 05:09:40;;;;;;;5.10;3.12;;;;;;;-1.62;83.99;99380.41;1618658;87;21668;-76
2021/01/29 05:12:31;;;;;;;5.90;3.30;;;;;;;-1.62;83.99;99380.41;1657139;86;21262;-76
2021/01/29 05:15:11;;;;;;;8.43;4.28;;;;;;;-1.55;84.20;99401.58;1620292;87;21247;-76
2021/01/29 05:18:21;;;;;;;9.20;4.28;;;;;;;-1.55;84.20;99401.58;1650636;85;21290;-76
2021/01/29 05:21:15;;;;;;;8.43;3.52;;;;;;;-1.56;84.00;99389.32;1643233;85;21268;-76
2021/01/29 05:24:12;;;;;;;10.25;3.70;;;;;;;-1.55;83.93;99381.30;1745791;80;21238;-77
2021/01/29 05:27:11;;;;;;;12.18;4.22;;;;;;;-1.55;84.08;99385.11;1719233;83;21177;-77
2021/01/29 05:29:51;;;;;;;9.45;4.15;;;;;;;-1.53;84.23;99376.69;1735382;82;21194;-77
2021/01/29 05:32:53;;;;;;;13.53;4.70;;;;;;;-1.53;84.00;99375.42;1716633;82;21198;-77
2021/01/29 05:36:02;;;;;;;11.30;3.77;;;;;;;-1.62;84.06;99352.53;1745864;81;22050;-76
2021/01/29 05:38:53;;;;;;;10.70;4.25;;;;;;;-1.53;84.05;99377.95;1728205;82;21725;-76
2021/01/29 05:41:37;;;;;;;8.78;3.60;;;;;;;-1.51;84.03;99381.36;1730001;82;21185;-77
2021/01/29 05:44:55;;;;;;;7.95;3.60;;;;;;;-1.64;83.95;99357.99;1728059;82;21189;-77
2021/01/29 05:47:36;;;;;;;8.78;3.75;;;;;;;-1.64;83.95;99357.99;1728146;82;21646;-77
2021/01/29 05:50:22;;;;;;;9.73;3.70;;;;;;;-1.59;84.07;99380.45;1673859;84;21800;-77
2021/01/29 05:53:43;;;;;;;11.08;5.37;;;;;;;-1.59;84.07;99380.45;1662393;85;21267;-77
2021/01/29 05:56:49;;;;;;;7.10;3.65;;;;;;;-1.71;83.79;99363.39;1659413;84;21237;-76
2021/01/29 05:59:53;;;;;;;14.75;3.87;;;;;;;-1.60;83.97;99377.47;1610222;87;21755;-77
2021/01/29 06:02:33;;;;;;;11.85;4.33;;;;;;;-1.71;83.78;99358.33;1521961;93;21285;-77
2021/01/29 06:05:43;;;;;;;12.63;4.47;;;;;;;-1.71;83.78;99358.33;1540710;92;21749;-77
2021/01/29 06:09:03;;;;;;;15.68;5.28;;;;;;;-1.60;84.00;99378.74;1527740;92;21284;-76
2021/01/29 06:11:47;;;;;;;8.95;3.87;;;;;;;-1.61;83.93;99371.97;1524843;92;21288;-76
2021/01/29 06:14:43;;;;;;;6.72;2.77;;;;;;;-1.60;83.94;99368.61;1483790;94;21835;-76
2021/01/29 06:17:44;;;;;;;11.22;4.28;;;;;;;-1.59;83.89;99365.66;1478545;94;21295;-76
2021/01/29 06:20:38;;;;;;;12.82;5.40;;;;;;;-1.59;83.89;99365.66;1487014;94;21454;-76
2021/01/29 06:23:27;;;;;;;13.10;5.03;;;;;;;-1.69;83.92;99337.66;1486761;94;21306;-76
2021/01/29 06:26:35;;;;;;;14.28;4.83;;;;;;;-1.61;83.92;99350.43;1487297;94;21269;-76
2021/01/29 06:29:28;;;;;;;7.72;3.87;;;;;;;-1.70;83.96;99332.16;1537639;92;21628;-75
2021/01/29 06:32:24;;;;;;;6.85;2.80;;;;;;;-1.59;83.92;99343.70;1544708;91;21863;-76
2021/01/29 06:35:23;;;;;;;;;;;;;;;-1.60;83.94;99336.92;1538115;91;21282;-76
2021/01/29 06:38:12;;;;;;;11.43;3.42;;;;;;;-1.61;83.88;99328.03;1534479;92;20384;-76
2021/01/29 06:40:50;;;;;;;10.10;4.08;;;;;;;-1.61;83.88;99328.03;1557981;90;21279;-75
2021/01/29 06:43:43;;;;;;;32.08;9.60;;;;;;;-1.62;83.94;99337.33;1551025;90;21276;-75
2021/01/29 06:46:30;;;;;;;26.97;7.83;;;;;;;-1.58;84.03;99333.14;1538759;90;21251;-76
2021/01/29 06:49:38;;;;;;;16.20;6.55;;;;;;;-1.58;84.03;99333.14;1513394;90;21430;-75
2021/01/29 06:52:34;;;;;;;8.73;3.80;;;;;;;-1.61;83.93;99323.81;1627423;85;21328;-75
2021/01/29 06:55:41;;;;;;;14.55;5.65;;;;;;;-1.63;83.91;99310.70;1602562;87;21252;-75
2021/01/29 06:58:29;;;;;;;13.98;5.05;;;;;;;-1.58;83.97;99321.73;1615058;87;21707;-76
2021/01/29 07:01:38;;;;;;;9.83;4.42;;;;;;;-1.58;83.99;99318.78;1602644;87;21264;-75
2021/01/29 07:04:54;;;;;;;14.35;4.55;;;;;;;-1.54;84.05;99309.50;1630991;86;21286;-75
2021/01/29 07:07:45;;;;;;;9.70;3.95;;;;;;;-1.52;84.02;99301.50;1605622;87;21234;-75
2021/01/29 07:10:53;;;;;;;6.62;3.27;;;;;;;-1.60;84.00;99282.44;1619468;87;21596;-75
2021/01/29 07:13:40;;;;;;;4.12;2.65;;;;;;;-1.56;84.00;99292.19;1616331;87;21731;-75
2021/01/29 07:16:38;;;;;;;9.60;3.30;;;;;;;-1.54;83.84;99288.81;1619013;87;21259;-75
2021/01/29 07:19:41;;;;;;;10.95;4.58;;;;;;;-1.55;84.00;99293.86;1611308;87;21255;-76
2021/01/29 07:22:28;;;;;;;13.98;5.40;;;;;;;-1.51;84.03;99290.11;1615329;87;21283;-76
2021/01/29 07:25:31;;;;;;;9.80;4.50;;;;;;;-1.48;83.97;99289.30;1618441;87;21789;-76
2021/01/29 07:28:28;;;;;;;10.25;4.65;;;;;;;-1.45;84.10;99290.17;1613646;87;21223;-75
2021/01/29 07:31:47;;;;;;;5.47;3.00;;;;;;;-1.40;84.00;99285.16;1633222;84;21284;-77
2021/01/29 07:34:29;;;;;;;5.72;2.92;;;;;;;-1.42;83.99;99285.56;1668541;84;21704;-76
2021/01/29 07:37:04;;;;;;;15.75;5.05;;;;;;;-1.41;84.05;99274.17;1646846;85;21233;-77
2021/01/29 07:39:51;;;;;;;9.70;4.33;;;;;;;-1.47;83.95;99255.09;1697373;82;22337;-76
2021/01/29 07:42:49;;;;;;;5.60;3.33;;;;;;;-1.36;84.04;99270.00;1716646;82;21225;-76
2021/01/29 07:45:46;;;;;;;6.33;3.50;;;;;;;-1.26;84.21;99268.41;1644514;85;21634;-76
2021/01/29 07:48:24;;;;;;;9.58;4.10;;;;;;;-1.26;84.21;99268.41;1640565;85;21302;-76
2021/01/29 07:51:37;;;;;;;6.60;3.55;;;;;;;-1.23;84.04;99259.97;1622477;87;47026;-76
2021/01/29 07:54:21;;;;;;;5.78;2.60;;;;;;;-1.20;84.03;99253.66;1642631;85;21250;-76
2021/01/29 07:57:26;;;;;;;3.83;2.50;;;;;;;-1.16;84.03;99251.17;1640903;85;21240;-76
2021/01/29 08:00:18;;;;;;;7.95;4.58;;;;;;;-1.10;84.07;99256.30;1640809;85;21275;-76
2021/01/29 08:03:17;;;;;;;7.22;4.15;;;;;;;-1.06;84.01;99255.91;1634859;85;21690;-76
2021/01/29 08:05:49;;;;;;;7.05;3.85;;;;;;;-1.10;84.10;99234.73;1639519;85;21252;-77
2021/01/29 08:08:26;;;;;;;4.85;2.90;;;;;;;-1.10;84.10;99234.73;1640847;85;21252;-76
2021/01/29 08:10:55;;;;;;;7.65;3.70;;;;;;;-0.97;83.93;99250.03;1644751;85;21255;-77
2021/01/29 08:13:45;;;;;;;6.40;2.60;;;;;;;-0.93;84.00;99243.73;1641983;85;21147;-77
2021/01/29 08:16:23;;;;;;;5.00;2.92;;;;;;;-0.88;83.90;99246.30;1643431;85;21231;-77
2021/01/29 08:19:18;;;;;;;5.97;2.72;;;;;;;-0.95;83.83;99234.41;1644831;85;21168;-77
2021/01/29 08:21:51;;;;;;;;;;;;;;;-0.87;83.80;99246.73;1553163;91;21530;-77
2021/01/29 08:24:51;;;;;;;6.37;3.25;;;;;;;-0.85;83.82;99253.94;1613153;85;20292;-77
2021/01/29 08:27:44;;;;;;;7.22;3.08;;;;;;;-0.83;83.85;99249.73;1641802;85;21669;-77
2021/01/29 08:30:43;;;;;;;4.15;3.12;;;;;;;-0.79;83.95;99248.49;1645747;85;21258;-76
2021/01/29 08:33:50;;;;;;;5.83;3.50;;;;;;;-0.75;83.88;99248.09;1642996;85;22239;-77
2021/01/29 08:36:40;;;;;;;4.72;3.22;;;;;;;-0.73;83.97;99244.73;1642858;85;21240;-76
2021/01/29 08:39:26;;;;;;;8.00;4.72;;;;;;;-0.72;83.82;99241.77;1673088;83;21236;-76
2021/01/29 08:41:56;;;;;;;;;;;;;;;-0.70;83.63;99248.98;1666319;83;21237;-77
2021/01/29 08:44:47;;;;;;;5.72;3.72;;;;;;;-0.69;83.86;99254.06;1670879;83;21061;-77
2021/01/29 08:48:00;;;;;;;6.97;3.95;;;;;;;-0.65;83.91;99259.17;1663326;84;21219;-77
2021/01/29 08:50:53;;;;;;;8.63;4.28;;;;;;;-0.63;83.95;99254.53;1658362;84;21250;-78
2021/01/29 08:54:05;;;;;;;5.60;3.50;;;;;;;-0.61;83.89;99257.08;1667163;84;21186;-77
2021/01/29 08:57:06;;;;;;;7.03;3.83;;;;;;;-0.58;83.85;99259.22;1665916;84;21213;-77
2021/01/29 08:59:36;;;;;;;9.33;4.15;;;;;;;-0.61;83.78;99260.47;1662278;84;21657;-77
2021/01/29 09:02:22;;;;;;;6.30;3.50;;;;;;;-0.62;83.79;99253.69;1645508;84;21243;-77
2021/01/29 09:04:54;;;;;;;7.40;4.55;;;;;;;-0.63;83.85;99253.27;1668055;84;22216;-77
2021/01/29 09:07:39;;;;;;;12.80;5.83;;;;;;;-0.63;83.84;99249.88;1654077;84;21241;-77
2021/01/29 09:10:21;;;;;;;9.75;4.10;;;;;;;-0.60;83.78;99251.16;1656210;84;21226;-77
2021/01/29 09:12:59;;;;;;;8.90;3.77;;;;;;;-0.65;83.62;99257.48;1654874;84;21409;-78
2021/01/29 09:15:55;;;;;;;7.80;4.12;;;;;;;-0.67;83.70;99260.42;1640162;84;21251;-77
2021/01/29 09:18:43;;;;;;;10.53;4.15;;;;;;;-0.69;83.64;99260.83;1624806;86;21236;-76
2021/01/29 09:21:21;;;;;;;6.20;3.72;;;;;;;-0.69;83.71;99259.14;1640400;86;21308;-77
2021/01/29 09:24:07;;;;;;;7.15;4.03;;;;;;;-0.68;83.72;99262.53;1560132;90;21639;-77
2021/01/29 09:26:48;;;;;;;10.50;4.20;;;;;;;-0.70;83.73;99254.91;1551910;90;22486;-77
2021/01/29 09:29:19;;;;;;;9.85;3.30;;;;;;;-0.65;83.79;99254.09;1560231;87;21256;-76
2021/01/29 09:31:51;;;;;;;7.30;3.70;;;;;;;-0.64;83.81;99254.09;1553565;90;21286;-76
2021/01/29 09:34:21;;;;;;;4.20;3.05;;;;;;;-0.62;83.79;99247.34;1569482;89;21262;-76
2021/01/29 09:36:55;;;;;;;7.10;3.42;;;;;;;-0.63;83.71;99238.03;1580456;89;21262;-77
2021/01/29 09:39:32;;;;;;;6.33;2.98;;;;;;;-0.62;83.75;99238.46;1561224;89;21421;-77
2021/01/29 09:42:15;;;;;;;7.50;3.62;;;;;;;-0.58;83.74;99235.11;1582914;89;21275;-77
2021/01/29 09:45:04;;;;;;;6.70;3.70;;;;;;;-0.55;83.76;99239.35;1559475;89;21735;-77
2021/01/29 09:47:35;;;;;;;6.10;3.15;;;;;;;-0.50;83.85;99234.70;1553469;90;21318;-76
2021/01/29 09:50:08;;;;;;;6.50;3.33;;;;;;;-0.44;83.80;99224.58;1576573;89;21290;-76
2021/01/29 09:53:00;;;;;;;6.75;4.03;;;;;;;-0.40;83.69;99219.95;1573798;89;21273;-77
2021/01/29 09:55:38;;;;;;;5.87;3.08;;;;;;;-0.35;83.71;99222.52;1575224;89;21265;-77
2021/01/29 09:58:11;;;;;;;6.25;3.40;;;;;;;-0.30;83.72;99220.00;1560527;89;21253;-76
2021/01/29 10:00:40;;;;;;;5.62;3.27;;;;;;;-0.25;83.67;99215.80;1582072;89;21233;-76
2021/01/29 10:03:27;;;;;;;7.62;3.15;;;;;;;-0.18;83.70;99208.21;1602221;88;21171;-76
2021/01/29 10:05:58;;;;;;;4.92;3.50;;;;;;;-0.14;83.69;99212.47;1602670;88;21685;-76
2021/01/29 10:08:38;;;;;;;6.87;3.87;;;;;;;-0.07;83.71;99215.88;1601678;88;21178;-76
2021/01/29 10:11:12;;;;;;;8.63;4.42;;;;;;;-0.04;83.60;99212.09;1602020;88;21185;-76
2021/01/29 10:13:59;;;;;;;10.40;3.40;;;;;;;0.00;83.55;99211.25;1600905;88;21190;-77
2021/01/29 10:16:36;;;;;;;2.70;2.00;;;;;;;0.01;83.46;99207.84;1601685;88;21126;-77
2021/01/29 10:19:16;;;;;;;4.42;3.05;;;;;;;0.04;83.47;99206.58;1600858;88;21209;-77
2021/01/29 10:22:20;;;;;;;4.53;2.75;;;;;;;0.08;83.51;99211.25;1602416;88;21183;-76
2021/01/29 10:25:21;;;;;;;5.20;2.80;;;;;;;0.07;83.41;99211.67;1602864;88;21154;-77
2021/01/29 10:28:17;;;;;;;4.85;2.75;;;;;;;0.08;83.47;99213.80;1602206;88;21167;-76
2021/01/29 10:31:00;;;;;;;4.92;3.40;;;;;;;0.09;83.43;99210.41;1602991;88;21742;-77
2021/01/29 10:33:34;;;;;;;3.80;2.60;;;;;;;0.11;83.50;99216.34;1607461;87;21255;-77
2021/01/29 10:36:27;;;;;;;4.00;2.12;;;;;;;0.14;83.55;99217.20;1607341;87;21227;-77
2021/01/29 10:42:13;;;;;;;4.03;2.65;;;;;;;0.11;83.32;99219.73;1603493;87;21258;-76
2021/01/29 10:44:41;;;;;;;3.77;2.85;;;;;;;0.13;83.34;99215.93;1603603;87;21211;-76
2021/01/29 10:47:31;;;;;;;7.65;4.17;;;;;;;0.14;83.42;99215.94;1606124;87;21241;-76
2021/01/29 10:50:17;;;;;;;5.50;3.17;;;;;;;0.16;83.38;99212.98;1602909;87;21245;-77
2021/01/29 10:53:04;;;;;;;6.28;2.98;;;;;;;0.18;83.47;99212.98;1604017;87;21269;-76
2021/01/29 10:55:36;;;;;;;7.60;3.08;;;;;;;0.20;83.37;99217.65;1603278;87;21251;-76
2021/01/29 10:58:40;;;;;;;4.00;2.12;;;;;;;0.19;83.29;99208.33;1603700;87;21253;-76
2021/01/29 11:01:11;;;;;;;2.87;2.15;;;;;;;0.18;83.26;99204.94;1598039;85;22035;-76
2021/01/29 11:04:04;;;;;;;6.53;2.98;;;;;;;0.19;83.25;99205.78;1627922;85;21238;-77
2021/01/29 11:06:46;;;;;;;4.95;2.20;;;;;;;0.19;83.20;99193.92;1559903;89;21241;-76
2021/01/29 11:09:26;;;;;;;3.85;2.45;;;;;;;0.10;82.92;99191.36;1557177;89;21288;-76
2021/01/29 11:12:28;;;;;;;8.30;3.98;;;;;;;-0.01;82.99;99183.73;1566084;89;21206;-76
2021/01/29 11:15:21;;;;;;;4.47;2.10;;;;;;;-0.01;83.12;99182.88;1568523;89;21269;-76
2021/01/29 11:18:11;;;;;;;5.37;1.98;;;;;;;0.03;83.17;99168.46;1568408;89;21289;-76
2021/01/29 11:20:39;;;;;;;3.62;1.85;;;;;;;0.05;83.16;99166.34;1569555;89;21293;-76
2021/01/29 11:23:44;;;;;;;3.72;2.10;;;;;;;0.11;83.22;99159.16;1571008;89;21245;-76
2021/01/29 11:26:18;;;;;;;2.45;1.77;;;;;;;0.18;83.33;99164.69;1570523;89;21807;-76
2021/01/29 11:29:02;;;;;;;3.05;1.95;;;;;;;0.21;83.25;99164.28;1570350;89;21278;-76
2021/01/29 11:31:40;;;;;;;3.80;2.25;;;;;;;0.28;83.27;99165.98;1539943;91;21316;-76
2021/01/29 11:34:11;;;;;;;4.35;2.00;;;;;;;0.27;82.99;99166.83;1531518;92;21617;-76
2021/01/29 11:36:45;;;;;;;3.77;2.45;;;;;;;0.25;83.06;99165.13;1538955;91;21353;-76
2021/01/29 11:39:26;;;;;;;2.87;2.40;;;;;;;0.28;83.06;99168.95;1527866;89;21292;-75
2021/01/29 11:42:06;;;;;;;3.60;2.45;;;;;;;0.27;83.17;99159.62;1536809;91;21407;-75
2021/01/29 11:44:47;;;;;;;4.40;2.35;;;;;;;0.32;83.23;99158.80;1606807;86;21247;-76
2021/01/29 11:47:43;;;;;;;3.52;1.90;;;;;;;0.32;83.05;99166.42;1619137;86;21199;-76
2021/01/29 11:50:41;;;;;;;5.28;3.42;;;;;;;0.31;82.95;99164.72;1621205;86;21244;-75
2021/01/29 11:53:33;;;;;;;4.50;3.05;;;;;;;0.32;82.90;99160.48;1572857;89;21238;-75
2021/01/29 11:56:16;;;;;;;4.60;3.12;;;;;;;0.28;82.75;99154.55;1581683;89;21163;-76
2021/01/29 11:58:51;;;;;;;2.77;1.90;;;;;;;0.25;82.82;99151.16;1560616;89;21620;-75
2021/01/29 12:01:25;;;;;;;4.08;2.45;;;;;;;0.26;82.96;99152.84;1579923;89;21225;-76
2021/01/29 12:04:00;;;;;;;3.95;2.22;;;;;;;0.28;83.02;99146.08;1577102;89;21266;-76
2021/01/29 12:06:40;;;;;;;4.12;2.02;;;;;;;0.32;83.09;99149.05;1577113;89;21767;-73
2021/01/29 12:09:21;;;;;;;3.98;3.02;;;;;;;0.34;83.01;99141.00;1552870;89;22031;-73
2021/01/29 12:12:07;;;;;;;4.05;3.02;;;;;;;0.37;83.06;99134.65;1616179;86;21157;-74
2021/01/29 12:15:04;;;;;;;8.33;4.22;;;;;;;0.35;82.81;99131.68;1621973;86;21190;-73
2021/01/29 12:17:32;;;;;;;6.95;4.55;;;;;;;0.31;82.82;99127.86;1581593;89;21158;-73
2021/01/29 12:20:06;;;;;;;22.17;11.53;;;;;;;0.30;82.83;99132.52;1582601;89;21154;-73
2021/01/29 12:23:00;;;;;;;39.60;15.30;;;;;;;0.28;82.74;99130.82;1580744;89;21237;-73
2021/01/29 12:25:49;;;;;;;24.23;9.65;;;;;;;0.24;82.60;99132.52;1581485;89;21626;-73
2021/01/29 12:28:34;;;;;;;6.65;3.87;;;;;;;0.17;82.64;99123.60;1574937;86;21254;-73
2021/01/29 12:31:30;;;;;;;5.37;4.00;;;;;;;0.18;82.86;99121.48;1623741;86;21487;-73
2021/01/29 12:34:01;;;;;;;3.42;2.80;;;;;;;0.22;82.91;99122.77;1599899;87;21141;-73
2021/01/29 12:36:29;;;;;;;6.45;2.77;;;;;;;0.22;82.71;99124.03;1615261;87;21825;-73
2021/01/29 12:39:12;;;;;;;5.97;2.75;;;;;;;0.16;82.57;99121.91;1621507;87;21185;-73
2021/01/29 12:41:44;;;;;;;6.25;3.00;;;;;;;0.15;82.67;99117.67;1608447;87;21245;-73
2021/01/29 12:44:16;;;;;;;4.53;2.80;;;;;;;0.12;82.68;99113.84;1616288;87;21252;-73
2021/01/29 12:47:24;;;;;;;3.55;2.37;;;;;;;0.10;82.72;99109.19;1614995;87;21236;-73
2021/01/29 12:50:43;;;;;;;4.72;2.52;;;;;;;0.12;82.87;99101.14;1543631;91;21249;-73
2021/01/29 12:53:48;;;;;;;7.72;3.17;;;;;;;0.17;82.83;99109.20;1519594;94;21323;-75
2021/01/29 12:57:01;;;;;;;4.12;2.70;;;;;;;0.20;82.93;99100.30;1529876;92;26310;-75
2021/01/29 12:59:35;;;;;;;5.37;3.17;;;;;;;0.19;82.69;99110.05;1551364;90;21284;-76